createdAt,value
2022-12-17T00:03:52.372Z,-0.72
2022-12-17T00:09:12.880Z,-0.61
2022-12-17T00:14:36.864Z,-0.61
2022-12-17T00:19:58.680Z,-0.59
2022-12-17T00:25:19.154Z,-0.62
2022-12-17T00:30:40.548Z,-0.52
2022-12-17T00:36:02.359Z,-0.55
2022-12-17T00:41:26.066Z,-0.65
2022-12-17T00:46:48.602Z,-0.59
2022-12-17T00:52:16.113Z,-0.60
2022-12-17T00:57:36.965Z,-0.58
2022-12-17T01:02:57.465Z,-0.69
2022-12-17T01:08:27.088Z,-0.59
2022-12-17T01:13:47.692Z,-0.54
2022-12-17T01:19:08.234Z,-0.54
2022-12-17T01:24:30.699Z,-0.61
2022-12-17T01:30:00.410Z,-0.72
2022-12-17T01:35:20.980Z,-0.64
2022-12-17T01:40:43.038Z,-0.64
2022-12-17T01:46:08.295Z,-0.75
2022-12-17T01:51:29.091Z,-0.72
2022-12-17T01:56:51.720Z,-0.72
2022-12-17T02:02:12.588Z,-0.84
2022-12-17T02:07:48.066Z,-0.80
2022-12-17T02:13:14.625Z,-0.81
2022-12-17T02:18:39.802Z,-0.87
2022-12-17T02:24:09.606Z,-0.84
2022-12-17T02:29:32.980Z,-0.87
2022-12-17T02:35:02.634Z,-0.82
2022-12-17T02:40:25.000Z,-0.95
2022-12-17T02:45:47.510Z,-0.98
2022-12-17T02:51:10.227Z,-1.03
2022-12-17T02:56:30.874Z,-0.99
2022-12-17T03:01:54.428Z,-1.00
2022-12-17T03:07:14.947Z,-1.06
2022-12-17T03:12:36.944Z,-1.07
2022-12-17T03:17:59.129Z,-1.13
2022-12-17T03:23:23.325Z,-1.16
2022-12-17T03:28:43.646Z,-1.14
2022-12-17T03:34:05.657Z,-1.19
2022-12-17T03:39:26.344Z,-1.19
2022-12-17T03:44:46.857Z,-1.13
2022-12-17T03:50:08.866Z,-1.13
2022-12-17T03:55:29.401Z,-1.15
2022-12-17T04:00:49.909Z,-1.13
2022-12-17T04:06:11.782Z,-1.09
2022-12-17T04:11:32.252Z,-1.12
2022-12-17T04:16:52.869Z,-1.04
2022-12-17T04:22:14.506Z,-1.05
2022-12-17T04:27:40.369Z,-0.92
2022-12-17T04:33:00.983Z,-0.94
2022-12-17T04:38:23.147Z,-0.94
2022-12-17T04:43:44.002Z,-0.96
2022-12-17T04:49:04.455Z,-0.87
2022-12-17T04:54:26.486Z,-0.82
2022-12-17T04:59:47.129Z,-0.84
2022-12-17T05:05:07.534Z,-0.84
2022-12-17T05:10:29.340Z,-0.84
2022-12-17T05:15:53.248Z,-0.94
2022-12-17T05:21:14.115Z,-0.86
2022-12-17T05:26:38.561Z,-0.83
2022-12-17T05:31:59.350Z,-0.78
2022-12-17T05:37:20.254Z,-0.78
2022-12-17T05:42:42.209Z,-0.78
2022-12-17T05:48:02.624Z,-0.76
2022-12-17T05:53:24.152Z,-0.72
2022-12-17T05:58:46.106Z,-0.76
2022-12-17T06:04:06.788Z,-0.72
2022-12-17T06:09:30.506Z,-0.70
2022-12-17T06:14:52.245Z,-0.73
2022-12-17T06:20:12.934Z,-0.70
2022-12-17T06:25:30.010Z,-0.71
2022-12-17T06:30:52.094Z,-0.73
2022-12-17T06:36:21.353Z,-0.79
2022-12-17T06:41:46.445Z,-0.84
2022-12-17T06:47:08.452Z,-0.84
2022-12-17T06:52:29.374Z,-0.75
2022-12-17T06:57:50.612Z,-0.72
2022-12-17T07:03:15.346Z,-0.73
2022-12-17T07:08:47.607Z,-0.79
2022-12-17T07:14:08.532Z,-0.74
2022-12-17T07:19:30.741Z,-0.76
2022-12-17T07:25:02.840Z,-0.82
2022-12-17T07:30:27.318Z,-0.89
2022-12-17T07:35:48.993Z,-0.85
2022-12-17T07:41:09.695Z,-0.76
2022-12-17T07:46:30.113Z,-0.73
2022-12-17T07:51:52.246Z,-0.78
2022-12-17T07:57:12.679Z,-0.82
2022-12-17T08:02:35.089Z,-0.95
2022-12-17T08:07:56.970Z,-0.92
2022-12-17T08:13:19.790Z,-0.91
2022-12-17T08:18:40.445Z,-0.91
2022-12-17T08:24:02.742Z,-0.87
2022-12-17T08:29:23.225Z,-0.89
2022-12-17T08:34:46.423Z,-0.72
2022-12-17T08:40:08.264Z,-0.74
2022-12-17T08:45:31.891Z,-0.67
2022-12-17T08:50:52.961Z,-0.90
2022-12-17T08:56:15.098Z,-0.79
2022-12-17T09:01:35.695Z,-0.97
2022-12-17T09:06:56.120Z,-1.00
2022-12-17T09:12:18.102Z,-1.01
2022-12-17T09:17:40.951Z,-1.00
2022-12-17T09:23:06.129Z,-0.87
2022-12-17T09:28:28.423Z,-0.80
2022-12-17T09:33:49.265Z,-0.75
2022-12-17T09:39:10.370Z,-0.49
2022-12-17T09:44:41.658Z,-0.42
2022-12-17T09:50:02.407Z,-0.57
2022-12-17T09:55:36.337Z,-0.36
2022-12-17T10:01:01.051Z,-0.38
2022-12-17T10:06:27.268Z,-0.26
2022-12-17T10:11:49.426Z,-0.23
2022-12-17T10:17:12.224Z,-0.08
2022-12-17T10:22:38.944Z,-0.03
2022-12-17T10:28:01.096Z,-0.09
2022-12-17T10:33:25.226Z,-0.01
2022-12-17T10:38:48.470Z,-0.09
2022-12-17T10:44:09.197Z,-0.07
2022-12-17T10:49:34.115Z,-0.09
2022-12-17T10:54:56.163Z,0.13
2022-12-17T11:00:16.872Z,0.23
2022-12-17T11:05:45.162Z,0.36
2022-12-17T11:11:07.005Z,0.29
2022-12-17T11:16:39.243Z,0.48
2022-12-17T11:22:03.967Z,0.58
2022-12-17T11:27:31.954Z,0.59
2022-12-17T11:33:19.608Z,0.73
2022-12-17T11:38:51.748Z,0.68
2022-12-17T11:44:20.668Z,0.75
2022-12-17T11:49:52.536Z,0.62
2022-12-17T11:55:22.675Z,0.56
2022-12-17T12:01:07.996Z,0.64
2022-12-17T12:06:35.940Z,0.59
2022-12-17T12:12:04.457Z,0.50
2022-12-17T12:26:42.965Z,0.04
2022-12-17T12:32:15.821Z,0.22
2022-12-17T12:37:39.442Z,0.04
2022-12-17T12:43:09.323Z,0.12
2022-12-17T12:48:44.668Z,0.11
2022-12-17T12:54:15.983Z,0.43
2022-12-17T12:59:45.641Z,0.26
2022-12-17T13:05:12.925Z,0.16
2022-12-17T13:10:28.496Z,0.38
2022-12-17T13:15:39.020Z,0.51
2022-12-17T13:20:42.545Z,0.54
2022-12-17T13:25:47.766Z,0.56
2022-12-17T13:31:03.630Z,0.44
2022-12-17T13:36:14.307Z,0.38
2022-12-17T13:41:20.554Z,0.37
2022-12-17T13:46:28.772Z,0.27
2022-12-17T13:51:35.486Z,0.15
2022-12-17T13:56:38.769Z,0.27
2022-12-17T14:01:50.340Z,0.26
2022-12-17T14:06:55.264Z,0.35
2022-12-17T14:12:30.739Z,0.23
2022-12-17T14:17:41.771Z,0.18
2022-12-17T14:22:51.692Z,0.17
2022-12-17T14:28:00.512Z,0.13
2022-12-17T14:33:06.406Z,0.08
2022-12-17T14:38:37.441Z,0.11
2022-12-17T14:43:47.937Z,0.08
2022-12-17T14:49:02.631Z,-0.07
2022-12-17T14:54:20.298Z,-0.09
2022-12-17T14:59:31.180Z,-0.19
2022-12-17T15:04:38.701Z,-0.21
2022-12-17T15:09:42.888Z,-0.34
2022-12-17T15:14:46.681Z,-0.50
2022-12-17T15:19:55.982Z,-0.45
2022-12-17T15:24:59.431Z,-0.58
2022-12-17T15:30:02.503Z,-0.62
2022-12-17T15:35:09.441Z,-0.59
2022-12-17T15:40:13.174Z,-0.59
2022-12-17T15:45:16.634Z,-0.57
2022-12-17T15:50:21.226Z,-0.59
2022-12-17T15:55:24.385Z,-0.59
2022-12-17T16:00:27.727Z,-0.77
2022-12-17T16:05:32.207Z,-0.87
2022-12-17T16:10:35.516Z,-0.96
2022-12-17T16:15:38.732Z,-1.00
2022-12-17T16:20:43.591Z,-1.05
2022-12-17T16:25:46.802Z,-1.06
2022-12-17T16:30:59.182Z,-1.25
2022-12-17T16:36:04.237Z,-1.21
2022-12-17T16:41:07.355Z,-1.17
2022-12-17T16:46:29.078Z,-1.18
2022-12-17T16:51:35.096Z,-1.06
2022-12-17T16:56:43.967Z,-1.08
2022-12-17T17:01:49.628Z,-1.27
2022-12-17T17:06:55.519Z,-1.30
2022-12-17T17:11:59.844Z,-1.26
2022-12-17T17:17:03.048Z,-1.33
2022-12-17T17:22:07.558Z,-1.36
2022-12-17T17:27:10.724Z,-1.40
2022-12-17T17:32:14.234Z,-1.46
2022-12-17T17:37:19.382Z,-1.47
2022-12-17T17:42:22.407Z,-1.47
2022-12-17T17:47:25.583Z,-1.48
2022-12-17T17:52:30.045Z,-1.44
2022-12-17T17:57:33.024Z,-1.43
2022-12-17T18:02:36.290Z,-1.50
2022-12-17T18:07:40.994Z,-1.57
2022-12-17T18:13:01.318Z,-1.66
2022-12-17T18:18:07.346Z,-1.82
2022-12-17T18:23:14.035Z,-1.71
2022-12-17T18:28:17.205Z,-1.80
2022-12-17T18:33:20.194Z,-1.88
2022-12-17T18:38:24.718Z,-1.95
2022-12-17T18:43:27.811Z,-1.95
2022-12-17T18:48:30.880Z,-1.88
2022-12-17T18:53:35.894Z,-1.81
2022-12-17T18:58:39.099Z,-1.84
2022-12-17T19:03:42.260Z,-1.88
2022-12-17T19:08:47.151Z,-1.93
2022-12-17T19:13:51.576Z,-1.94
2022-12-17T19:18:56.964Z,-2.07
2022-12-17T19:24:07.334Z,-1.99
2022-12-17T19:29:13.041Z,-2.06
2022-12-17T19:34:17.931Z,-2.03
2022-12-17T19:39:22.774Z,-2.10
2022-12-17T19:44:27.150Z,-2.13
2022-12-17T19:49:30.513Z,-2.15
2022-12-17T19:54:35.622Z,-2.19
2022-12-17T19:59:38.897Z,-2.31
2022-12-17T20:04:42.140Z,-2.20
2022-12-17T20:09:46.565Z,-2.27
2022-12-17T20:14:49.851Z,-2.30
2022-12-17T20:19:53.878Z,-2.21
2022-12-17T20:25:01.533Z,-2.15
2022-12-17T20:30:05.941Z,-2.21
2022-12-17T20:35:12.599Z,-2.24
2022-12-17T20:40:23.531Z,-2.44
2022-12-17T20:45:26.747Z,-2.41
2022-12-17T20:50:34.712Z,-2.37
2022-12-17T20:55:39.030Z,-2.34
2022-12-17T21:00:43.356Z,-2.36
2022-12-17T21:05:46.573Z,-2.41
2022-12-17T21:10:59.079Z,-2.61
2022-12-17T21:16:07.490Z,-2.40
2022-12-17T21:21:14.055Z,-2.36
2022-12-17T21:26:21.712Z,-2.39
2022-12-17T21:31:27.473Z,-2.43
2022-12-17T21:36:33.510Z,-2.33
2022-12-17T21:41:44.536Z,-2.39
2022-12-17T21:46:50.314Z,-2.30
2022-12-17T21:51:53.668Z,-2.32
2022-12-17T21:56:58.439Z,-2.36
2022-12-17T22:02:01.602Z,-2.33
2022-12-17T22:07:17.387Z,-2.42
2022-12-17T22:12:44.801Z,-2.47
2022-12-17T22:17:47.832Z,-2.50
2022-12-17T22:22:51.483Z,-2.40
2022-12-17T22:27:56.929Z,-2.52
2022-12-17T22:33:14.783Z,-2.49
2022-12-17T22:43:07.644Z,-2.50
2022-12-17T22:44:43.761Z,-2.51
2022-12-17T22:49:16.041Z,-2.56
2022-12-17T22:54:19.304Z,-2.59
2022-12-17T22:59:24.422Z,-2.58
2022-12-17T23:04:27.669Z,-2.68
2022-12-17T23:09:31.116Z,-2.81
2022-12-17T23:14:35.634Z,-2.84
2022-12-17T23:19:39.100Z,-2.83
2022-12-17T23:24:43.973Z,-2.74
2022-12-17T23:29:48.477Z,-2.71
2022-12-17T23:34:51.588Z,-2.83
2022-12-17T23:39:54.686Z,-2.80
2022-12-17T23:44:59.095Z,-2.85
2022-12-17T23:50:04.204Z,-2.91
2022-12-17T23:55:08.595Z,-2.90
